sensor_id;sensor_type;location;lat;lon;timestamp;P1;durP1;ratioP1;P2;durP2;ratioP2
25948;SDS011;13961;51.178;4.448;2023-07-20T00:00:07;13.05;;;4.18;;
25948;SDS011;13961;51.178;4.448;2023-07-20T00:02:33;8.45;;;3.65;;
25948;SDS011;13961;51.178;4.448;2023-07-20T00:04:59;7.10;;;3.40;;
25948;SDS011;13961;51.178;4.448;2023-07-20T00:07:25;7.15;;;3.35;;
25948;SDS011;13961;51.178;4.448;2023-07-20T00:09:50;6.38;;;3.65;;
25948;SDS011;13961;51.178;4.448;2023-07-20T00:12:16;10.77;;;3.63;;
25948;SDS011;13961;51.178;4.448;2023-07-20T00:14:42;9.00;;;3.20;;
25948;SDS011;13961;51.178;4.448;2023-07-20T00:17:07;6.68;;;3.50;;
25948;SDS011;13961;51.178;4.448;2023-07-20T00:19:33;9.50;;;2.95;;
25948;SDS011;13961;51.178;4.448;2023-07-20T00:21:59;8.95;;;3.55;;
25948;SDS011;13961;51.178;4.448;2023-07-20T00:24:25;6.55;;;3.20;;
25948;SDS011;13961;51.178;4.448;2023-07-20T00:26:52;6.53;;;3.15;;
25948;SDS011;13961;51.178;4.448;2023-07-20T00:29:17;8.68;;;3.42;;
25948;SDS011;13961;51.178;4.448;2023-07-20T00:31:43;6.90;;;3.42;;
25948;SDS011;13961;51.178;4.448;2023-07-20T00:34:08;10.25;;;3.50;;
25948;SDS011;13961;51.178;4.448;2023-07-20T00:36:34;8.52;;;3.40;;
25948;SDS011;13961;51.178;4.448;2023-07-20T00:39:00;8.13;;;3.15;;
25948;SDS011;13961;51.178;4.448;2023-07-20T00:41:25;7.10;;;3.42;;
25948;SDS011;13961;51.178;4.448;2023-07-20T00:43:54;8.30;;;3.50;;
25948;SDS011;13961;51.178;4.448;2023-07-20T00:46:21;6.75;;;3.40;;
25948;SDS011;13961;51.178;4.448;2023-07-20T00:48:49;8.38;;;3.38;;
25948;SDS011;13961;51.178;4.448;2023-07-20T00:51:15;8.63;;;3.70;;
25948;SDS011;13961;51.178;4.448;2023-07-20T00:53:41;10.93;;;3.15;;
25948;SDS011;13961;51.178;4.448;2023-07-20T00:56:06;6.80;;;3.35;;
25948;SDS011;13961;51.178;4.448;2023-07-20T00:58:34;5.72;;;3.55;;
25948;SDS011;13961;51.178;4.448;2023-07-20T01:01:00;7.75;;;3.28;;
25948;SDS011;13961;51.178;4.448;2023-07-20T01:03:25;9.52;;;3.80;;
25948;SDS011;13961;51.178;4.448;2023-07-20T01:05:54;7.53;;;3.17;;
25948;SDS011;13961;51.178;4.448;2023-07-20T01:11:19;7.95;;;3.47;;
25948;SDS011;13961;51.178;4.448;2023-07-20T01:13:53;10.25;;;3.58;;
25948;SDS011;13961;51.178;4.448;2023-07-20T01:16:20;8.55;;;3.47;;
25948;SDS011;13961;51.178;4.448;2023-07-20T01:18:45;9.55;;;3.55;;
25948;SDS011;13961;51.178;4.448;2023-07-20T01:21:13;6.18;;;4.13;;
25948;SDS011;13961;51.178;4.448;2023-07-20T01:26:33;9.65;;;4.20;;
25948;SDS011;13961;51.178;4.448;2023-07-20T01:32:07;6.72;;;4.05;;
25948;SDS011;13961;51.178;4.448;2023-07-20T01:34:34;6.93;;;4.30;;
25948;SDS011;13961;51.178;4.448;2023-07-20T01:37:01;8.93;;;4.30;;
25948;SDS011;13961;51.178;4.448;2023-07-20T01:39:28;9.32;;;4.90;;
25948;SDS011;13961;51.178;4.448;2023-07-20T01:41:55;14.40;;;4.90;;
25948;SDS011;13961;51.178;4.448;2023-07-20T01:44:22;12.60;;;4.70;;
25948;SDS011;13961;51.178;4.448;2023-07-20T01:46:47;10.27;;;4.82;;
25948;SDS011;13961;51.178;4.448;2023-07-20T01:49:13;10.60;;;4.93;;
25948;SDS011;13961;51.178;4.448;2023-07-20T01:51:38;11.55;;;5.25;;
25948;SDS011;13961;51.178;4.448;2023-07-20T01:54:04;11.38;;;4.68;;
25948;SDS011;13961;51.178;4.448;2023-07-20T01:56:30;9.73;;;5.10;;
25948;SDS011;13961;51.178;4.448;2023-07-20T01:58:55;8.07;;;4.97;;
25948;SDS011;13961;51.178;4.448;2023-07-20T02:01:21;9.18;;;5.18;;
25948;SDS011;13961;51.178;4.448;2023-07-20T02:03:47;10.05;;;5.38;;
25948;SDS011;13961;51.178;4.448;2023-07-20T02:06:12;13.55;;;5.38;;
25948;SDS011;13961;51.178;4.448;2023-07-20T02:08:38;12.80;;;5.68;;
25948;SDS011;13961;51.178;4.448;2023-07-20T02:11:03;10.55;;;5.75;;
25948;SDS011;13961;51.178;4.448;2023-07-20T02:13:29;13.65;;;5.93;;
25948;SDS011;13961;51.178;4.448;2023-07-20T02:15:55;8.63;;;5.50;;
25948;SDS011;13961;51.178;4.448;2023-07-20T02:18:21;9.32;;;6.55;;
25948;SDS011;13961;51.178;4.448;2023-07-20T02:20:46;12.77;;;5.80;;
25948;SDS011;13961;51.178;4.448;2023-07-20T02:23:12;8.48;;;5.80;;
25948;SDS011;13961;51.178;4.448;2023-07-20T02:25:38;11.07;;;6.30;;
25948;SDS011;13961;51.178;4.448;2023-07-20T02:28:04;10.07;;;6.45;;
25948;SDS011;13961;51.178;4.448;2023-07-20T02:30:30;11.52;;;6.40;;
25948;SDS011;13961;51.178;4.448;2023-07-20T02:32:55;8.85;;;6.07;;
25948;SDS011;13961;51.178;4.448;2023-07-20T02:35:23;11.88;;;6.47;;
25948;SDS011;13961;51.178;4.448;2023-07-20T02:37:49;13.30;;;6.70;;
25948;SDS011;13961;51.178;4.448;2023-07-20T02:40:14;11.27;;;7.03;;
25948;SDS011;13961;51.178;4.448;2023-07-20T02:42:40;11.35;;;6.22;;
25948;SDS011;13961;51.178;4.448;2023-07-20T02:45:06;9.55;;;6.63;;
25948;SDS011;13961;51.178;4.448;2023-07-20T02:47:32;12.35;;;7.03;;
25948;SDS011;13961;51.178;4.448;2023-07-20T02:49:58;11.82;;;6.78;;
25948;SDS011;13961;51.178;4.448;2023-07-20T02:52:24;12.48;;;7.25;;
25948;SDS011;13961;51.178;4.448;2023-07-20T02:54:50;12.48;;;7.43;;
25948;SDS011;13961;51.178;4.448;2023-07-20T02:57:16;12.13;;;7.72;;
25948;SDS011;13961;51.178;4.448;2023-07-20T02:59:42;12.98;;;8.60;;
25948;SDS011;13961;51.178;4.448;2023-07-20T03:02:07;11.05;;;7.57;;
25948;SDS011;13961;51.178;4.448;2023-07-20T03:04:34;13.23;;;8.20;;
25948;SDS011;13961;51.178;4.448;2023-07-20T03:07:02;13.15;;;8.55;;
25948;SDS011;13961;51.178;4.448;2023-07-20T03:09:29;13.75;;;8.23;;
25948;SDS011;13961;51.178;4.448;2023-07-20T03:11:54;13.45;;;7.43;;
25948;SDS011;13961;51.178;4.448;2023-07-20T03:14:20;9.82;;;6.70;;
25948;SDS011;13961;51.178;4.448;2023-07-20T03:16:46;10.82;;;7.47;;
25948;SDS011;13961;51.178;4.448;2023-07-20T03:19:11;11.98;;;7.75;;
25948;SDS011;13961;51.178;4.448;2023-07-20T03:21:37;9.30;;;6.82;;
25948;SDS011;13961;51.178;4.448;2023-07-20T03:24:06;10.57;;;7.53;;
25948;SDS011;13961;51.178;4.448;2023-07-20T03:26:35;10.30;;;7.68;;
25948;SDS011;13961;51.178;4.448;2023-07-20T03:29:01;12.98;;;7.75;;
25948;SDS011;13961;51.178;4.448;2023-07-20T03:31:27;13.70;;;7.38;;
25948;SDS011;13961;51.178;4.448;2023-07-20T03:33:53;13.63;;;8.07;;
25948;SDS011;13961;51.178;4.448;2023-07-20T03:36:18;11.45;;;7.00;;
25948;SDS011;13961;51.178;4.448;2023-07-20T03:38:45;10.68;;;7.95;;
25948;SDS011;13961;51.178;4.448;2023-07-20T03:41:11;12.68;;;7.90;;
25948;SDS011;13961;51.178;4.448;2023-07-20T03:43:37;12.68;;;8.77;;
25948;SDS011;13961;51.178;4.448;2023-07-20T03:46:02;16.42;;;7.72;;
25948;SDS011;13961;51.178;4.448;2023-07-20T03:48:32;11.77;;;7.78;;
25948;SDS011;13961;51.178;4.448;2023-07-20T03:50:58;10.10;;;7.32;;
25948;SDS011;13961;51.178;4.448;2023-07-20T03:53:25;14.32;;;7.85;;
25948;SDS011;13961;51.178;4.448;2023-07-20T03:55:51;11.27;;;7.18;;
25948;SDS011;13961;51.178;4.448;2023-07-20T03:58:18;12.15;;;7.97;;
25948;SDS011;13961;51.178;4.448;2023-07-20T04:00:45;12.05;;;7.40;;
25948;SDS011;13961;51.178;4.448;2023-07-20T04:03:11;13.70;;;7.47;;
25948;SDS011;13961;51.178;4.448;2023-07-20T04:05:37;11.27;;;6.55;;
25948;SDS011;13961;51.178;4.448;2023-07-20T04:08:03;10.55;;;6.93;;
25948;SDS011;13961;51.178;4.448;2023-07-20T04:10:29;10.93;;;6.15;;
25948;SDS011;13961;51.178;4.448;2023-07-20T04:12:54;10.50;;;6.35;;
25948;SDS011;13961;51.178;4.448;2023-07-20T04:15:20;8.88;;;6.03;;
25948;SDS011;13961;51.178;4.448;2023-07-20T04:17:46;9.82;;;6.45;;
25948;SDS011;13961;51.178;4.448;2023-07-20T04:20:11;9.57;;;6.53;;
25948;SDS011;13961;51.178;4.448;2023-07-20T04:22:37;10.00;;;6.50;;
25948;SDS011;13961;51.178;4.448;2023-07-20T04:25:03;9.20;;;6.57;;
25948;SDS011;13961;51.178;4.448;2023-07-20T04:27:29;8.90;;;6.28;;
25948;SDS011;13961;51.178;4.448;2023-07-20T04:29:55;13.63;;;7.60;;
25948;SDS011;13961;51.178;4.448;2023-07-20T04:32:22;7.65;;;6.00;;
25948;SDS011;13961;51.178;4.448;2023-07-20T04:34:48;11.95;;;6.50;;
25948;SDS011;13961;51.178;4.448;2023-07-20T04:37:14;9.32;;;5.60;;
25948;SDS011;13961;51.178;4.448;2023-07-20T04:39:40;6.47;;;4.90;;
25948;SDS011;13961;51.178;4.448;2023-07-20T04:42:05;4.70;;;3.55;;
25948;SDS011;13961;51.178;4.448;2023-07-20T04:44:31;4.43;;;3.75;;
25948;SDS011;13961;51.178;4.448;2023-07-20T04:46:57;4.55;;;3.30;;
25948;SDS011;13961;51.178;4.448;2023-07-20T04:49:22;5.50;;;3.63;;
25948;SDS011;13961;51.178;4.448;2023-07-20T04:51:48;6.90;;;4.45;;
25948;SDS011;13961;51.178;4.448;2023-07-20T04:54:13;7.95;;;4.72;;
25948;SDS011;13961;51.178;4.448;2023-07-20T04:56:39;9.32;;;4.95;;
25948;SDS011;13961;51.178;4.448;2023-07-20T04:59:05;8.20;;;5.05;;
25948;SDS011;13961;51.178;4.448;2023-07-20T05:01:31;7.57;;;4.85;;
25948;SDS011;13961;51.178;4.448;2023-07-20T05:03:56;5.50;;;4.43;;
25948;SDS011;13961;51.178;4.448;2023-07-20T05:06:22;7.07;;;4.10;;
25948;SDS011;13961;51.178;4.448;2023-07-20T05:08:47;5.35;;;3.88;;
25948;SDS011;13961;51.178;4.448;2023-07-20T05:11:13;5.78;;;3.88;;
25948;SDS011;13961;51.178;4.448;2023-07-20T05:13:39;5.15;;;3.60;;
25948;SDS011;13961;51.178;4.448;2023-07-20T05:16:05;4.20;;;3.80;;
25948;SDS011;13961;51.178;4.448;2023-07-20T05:18:31;5.78;;;3.42;;
25948;SDS011;13961;51.178;4.448;2023-07-20T05:20:56;4.07;;;3.22;;
25948;SDS011;13961;51.178;4.448;2023-07-20T05:23:22;6.00;;;3.25;;
25948;SDS011;13961;51.178;4.448;2023-07-20T05:25:53;4.75;;;3.00;;
25948;SDS011;13961;51.178;4.448;2023-07-20T05:28:26;3.90;;;2.97;;
25948;SDS011;13961;51.178;4.448;2023-07-20T05:30:52;3.50;;;3.03;;
25948;SDS011;13961;51.178;4.448;2023-07-20T05:33:18;4.80;;;3.53;;
25948;SDS011;13961;51.178;4.448;2023-07-20T05:35:48;5.57;;;4.30;;
25948;SDS011;13961;51.178;4.448;2023-07-20T05:38:13;5.95;;;4.38;;
25948;SDS011;13961;51.178;4.448;2023-07-20T05:40:43;5.00;;;4.30;;
25948;SDS011;13961;51.178;4.448;2023-07-20T05:43:10;5.07;;;4.03;;
25948;SDS011;13961;51.178;4.448;2023-07-20T05:45:36;5.05;;;3.63;;
25948;SDS011;13961;51.178;4.448;2023-07-20T05:48:02;4.22;;;3.78;;
25948;SDS011;13961;51.178;4.448;2023-07-20T05:50:27;4.28;;;3.30;;
25948;SDS011;13961;51.178;4.448;2023-07-20T05:52:53;6.30;;;3.00;;
25948;SDS011;13961;51.178;4.448;2023-07-20T05:55:20;3.97;;;3.47;;
25948;SDS011;13961;51.178;4.448;2023-07-20T05:57:46;3.50;;;3.20;;
25948;SDS011;13961;51.178;4.448;2023-07-20T06:00:13;4.25;;;2.83;;
25948;SDS011;13961;51.178;4.448;2023-07-20T06:02:41;3.63;;;2.70;;
25948;SDS011;13961;51.178;4.448;2023-07-20T06:05:07;4.28;;;2.90;;
25948;SDS011;13961;51.178;4.448;2023-07-20T06:07:37;2.65;;;2.45;;
25948;SDS011;13961;51.178;4.448;2023-07-20T06:10:03;3.33;;;2.38;;
25948;SDS011;13961;51.178;4.448;2023-07-20T06:12:30;4.22;;;2.20;;
25948;SDS011;13961;51.178;4.448;2023-07-20T06:14:57;3.65;;;2.17;;
25948;SDS011;13961;51.178;4.448;2023-07-20T06:17:26;2.30;;;1.92;;
25948;SDS011;13961;51.178;4.448;2023-07-20T06:19:52;5.05;;;2.13;;
25948;SDS011;13961;51.178;4.448;2023-07-20T06:22:17;4.05;;;2.40;;
25948;SDS011;13961;51.178;4.448;2023-07-20T06:24:43;6.57;;;3.20;;
25948;SDS011;13961;51.178;4.448;2023-07-20T06:27:08;3.30;;;3.00;;
25948;SDS011;13961;51.178;4.448;2023-07-20T06:29:34;5.50;;;3.03;;
25948;SDS011;13961;51.178;4.448;2023-07-20T06:31:59;3.95;;;3.10;;
25948;SDS011;13961;51.178;4.448;2023-07-20T06:34:25;4.05;;;3.50;;
25948;SDS011;13961;51.178;4.448;2023-07-20T06:36:51;5.47;;;3.88;;
25948;SDS011;13961;51.178;4.448;2023-07-20T06:39:16;4.85;;;3.35;;
25948;SDS011;13961;51.178;4.448;2023-07-20T06:41:42;4.88;;;3.40;;
25948;SDS011;13961;51.178;4.448;2023-07-20T06:44:07;4.68;;;3.22;;
25948;SDS011;13961;51.178;4.448;2023-07-20T06:46:33;5.13;;;3.42;;
25948;SDS011;13961;51.178;4.448;2023-07-20T06:48:59;6.60;;;3.17;;
25948;SDS011;13961;51.178;4.448;2023-07-20T06:51:24;3.90;;;2.97;;
25948;SDS011;13961;51.178;4.448;2023-07-20T06:53:50;4.22;;;3.60;;
25948;SDS011;13961;51.178;4.448;2023-07-20T06:56:16;6.13;;;4.68;;
25948;SDS011;13961;51.178;4.448;2023-07-20T06:58:41;5.75;;;3.67;;
25948;SDS011;13961;51.178;4.448;2023-07-20T07:01:07;7.18;;;3.63;;
25948;SDS011;13961;51.178;4.448;2023-07-20T07:03:33;5.38;;;4.30;;
25948;SDS011;13961;51.178;4.448;2023-07-20T07:05:59;3.97;;;3.38;;
25948;SDS011;13961;51.178;4.448;2023-07-20T07:08:25;4.60;;;3.50;;
25948;SDS011;13961;51.178;4.448;2023-07-20T07:10:52;3.30;;;2.92;;
25948;SDS011;13961;51.178;4.448;2023-07-20T07:13:18;4.85;;;3.40;;
25948;SDS011;13961;51.178;4.448;2023-07-20T07:15:44;3.83;;;3.42;;
25948;SDS011;13961;51.178;4.448;2023-07-20T07:18:11;7.10;;;3.40;;
25948;SDS011;13961;51.178;4.448;2023-07-20T07:20:36;4.43;;;3.70;;
25948;SDS011;13961;51.178;4.448;2023-07-20T07:23:02;3.05;;;2.72;;
25948;SDS011;13961;51.178;4.448;2023-07-20T07:25:28;4.00;;;3.28;;
25948;SDS011;13961;51.178;4.448;2023-07-20T07:27:53;4.22;;;3.63;;
25948;SDS011;13961;51.178;4.448;2023-07-20T07:30:23;5.80;;;3.67;;
25948;SDS011;13961;51.178;4.448;2023-07-20T07:32:49;7.10;;;3.97;;
25948;SDS011;13961;51.178;4.448;2023-07-20T07:35:19;5.03;;;3.28;;
25948;SDS011;13961;51.178;4.448;2023-07-20T07:37:44;5.13;;;3.58;;
25948;SDS011;13961;51.178;4.448;2023-07-20T07:40:19;3.80;;;3.40;;
25948;SDS011;13961;51.178;4.448;2023-07-20T07:42:45;4.82;;;3.97;;
25948;SDS011;13961;51.178;4.448;2023-07-20T07:45:10;4.93;;;3.97;;
25948;SDS011;13961;51.178;4.448;2023-07-20T07:47:36;5.55;;;3.55;;
25948;SDS011;13961;51.178;4.448;2023-07-20T07:50:02;5.60;;;3.88;;
25948;SDS011;13961;51.178;4.448;2023-07-20T07:52:28;4.05;;;3.25;;
25948;SDS011;13961;51.178;4.448;2023-07-20T07:54:53;3.30;;;2.67;;
25948;SDS011;13961;51.178;4.448;2023-07-20T07:57:19;3.03;;;2.83;;
25948;SDS011;13961;51.178;4.448;2023-07-20T07:59:45;3.78;;;3.22;;
25948;SDS011;13961;51.178;4.448;2023-07-20T08:02:10;2.30;;;2.10;;
25948;SDS011;13961;51.178;4.448;2023-07-20T08:04:36;3.13;;;2.65;;
25948;SDS011;13961;51.178;4.448;2023-07-20T08:07:03;3.30;;;2.97;;
25948;SDS011;13961;51.178;4.448;2023-07-20T08:09:29;4.00;;;2.42;;
25948;SDS011;13961;51.178;4.448;2023-07-20T08:11:54;5.32;;;3.22;;
25948;SDS011;13961;51.178;4.448;2023-07-20T08:14:20;2.67;;;2.47;;
25948;SDS011;13961;51.178;4.448;2023-07-20T08:16:46;2.75;;;2.55;;
25948;SDS011;13961;51.178;4.448;2023-07-20T08:19:15;3.55;;;2.80;;
25948;SDS011;13961;51.178;4.448;2023-07-20T08:21:41;4.15;;;2.40;;
25948;SDS011;13961;51.178;4.448;2023-07-20T08:24:06;4.75;;;3.00;;
25948;SDS011;13961;51.178;4.448;2023-07-20T08:26:32;3.15;;;2.95;;
25948;SDS011;13961;51.178;4.448;2023-07-20T08:28:58;2.90;;;2.70;;
25948;SDS011;13961;51.178;4.448;2023-07-20T08:31:23;2.95;;;2.75;;
25948;SDS011;13961;51.178;4.448;2023-07-20T08:33:49;2.17;;;1.98;;
25948;SDS011;13961;51.178;4.448;2023-07-20T08:36:14;2.50;;;2.30;;
25948;SDS011;13961;51.178;4.448;2023-07-20T08:38:41;3.53;;;2.35;;
25948;SDS011;13961;51.178;4.448;2023-07-20T08:41:06;3.55;;;2.33;;
25948;SDS011;13961;51.178;4.448;2023-07-20T08:43:32;2.50;;;2.30;;
25948;SDS011;13961;51.178;4.448;2023-07-20T08:45:58;3.88;;;2.47;;
25948;SDS011;13961;51.178;4.448;2023-07-20T08:48:25;2.70;;;2.50;;
25948;SDS011;13961;51.178;4.448;2023-07-20T08:50:53;2.72;;;2.42;;
25948;SDS011;13961;51.178;4.448;2023-07-20T08:53:19;2.70;;;2.47;;
25948;SDS011;13961;51.178;4.448;2023-07-20T08:55:46;2.90;;;2.70;;
25948;SDS011;13961;51.178;4.448;2023-07-20T08:58:15;3.22;;;2.92;;
25948;SDS011;13961;51.178;4.448;2023-07-20T09:00:41;2.92;;;2.30;;
25948;SDS011;13961;51.178;4.448;2023-07-20T09:03:07;2.80;;;2.22;;
25948;SDS011;13961;51.178;4.448;2023-07-20T09:05:33;3.05;;;2.45;;
25948;SDS011;13961;51.178;4.448;2023-07-20T09:08:00;2.40;;;2.20;;
25948;SDS011;13961;51.178;4.448;2023-07-20T09:10:27;2.90;;;2.65;;
25948;SDS011;13961;51.178;4.448;2023-07-20T09:12:53;3.25;;;2.22;;
25948;SDS011;13961;51.178;4.448;2023-07-20T09:15:20;4.28;;;2.55;;
25948;SDS011;13961;51.178;4.448;2023-07-20T09:17:48;4.88;;;3.22;;
25948;SDS011;13961;51.178;4.448;2023-07-20T09:20:15;3.70;;;2.83;;
25948;SDS011;13961;51.178;4.448;2023-07-20T09:22:42;3.10;;;2.47;;
25948;SDS011;13961;51.178;4.448;2023-07-20T09:25:12;2.50;;;2.30;;
25948;SDS011;13961;51.178;4.448;2023-07-20T09:27:40;3.63;;;2.42;;
25948;SDS011;13961;51.178;4.448;2023-07-20T09:30:07;3.00;;;2.53;;
25948;SDS011;13961;51.178;4.448;2023-07-20T09:32:41;3.05;;;2.42;;
25948;SDS011;13961;51.178;4.448;2023-07-20T09:35:15;3.05;;;2.63;;
25948;SDS011;13961;51.178;4.448;2023-07-20T09:40:26;3.50;;;3.20;;
25948;SDS011;13961;51.178;4.448;2023-07-20T09:42:53;3.90;;;2.80;;
25948;SDS011;13961;51.178;4.448;2023-07-20T09:45:29;3.47;;;3.17;;
25948;SDS011;13961;51.178;4.448;2023-07-20T09:48:05;4.22;;;3.10;;
25948;SDS011;13961;51.178;4.448;2023-07-20T09:50:41;3.72;;;3.40;;
25948;SDS011;13961;51.178;4.448;2023-07-20T09:53:09;3.85;;;3.17;;
25948;SDS011;13961;51.178;4.448;2023-07-20T09:55:38;4.03;;;2.95;;
25948;SDS011;13961;51.178;4.448;2023-07-20T09:58:06;4.20;;;2.85;;
25948;SDS011;13961;51.178;4.448;2023-07-20T10:00:35;4.68;;;3.10;;
25948;SDS011;13961;51.178;4.448;2023-07-20T10:03:02;3.30;;;3.00;;
25948;SDS011;13961;51.178;4.448;2023-07-20T10:05:30;3.05;;;2.75;;
25948;SDS011;13961;51.178;4.448;2023-07-20T10:08:02;2.97;;;2.70;;
25948;SDS011;13961;51.178;4.448;2023-07-20T10:10:30;3.75;;;2.70;;
25948;SDS011;13961;51.178;4.448;2023-07-20T10:12:58;3.17;;;2.80;;
25948;SDS011;13961;51.178;4.448;2023-07-20T10:15:32;4.60;;;3.00;;
25948;SDS011;13961;51.178;4.448;2023-07-20T10:18:06;3.03;;;2.72;;
25948;SDS011;13961;51.178;4.448;2023-07-20T10:20:39;2.60;;;2.40;;
25948;SDS011;13961;51.178;4.448;2023-07-20T10:23:09;2.60;;;2.40;;
25948;SDS011;13961;51.178;4.448;2023-07-20T10:25:35;2.85;;;2.10;;
25948;SDS011;13961;51.178;4.448;2023-07-20T10:28:04;2.80;;;2.50;;
25948;SDS011;13961;51.178;4.448;2023-07-20T10:30:31;2.92;;;2.72;;
25948;SDS011;13961;51.178;4.448;2023-07-20T10:32:59;3.83;;;3.03;;
25948;SDS011;13961;51.178;4.448;2023-07-20T10:35:27;5.28;;;2.85;;
25948;SDS011;13961;51.178;4.448;2023-07-20T10:37:53;2.33;;;1.75;;
25948;SDS011;13961;51.178;4.448;2023-07-20T10:40:23;3.50;;;1.73;;
25948;SDS011;13961;51.178;4.448;2023-07-20T10:42:49;3.35;;;1.52;;
25948;SDS011;13961;51.178;4.448;2023-07-20T10:45:16;1.40;;;1.30;;
25948;SDS011;13961;51.178;4.448;2023-07-20T10:47:46;3.28;;;1.25;;
25948;SDS011;13961;51.178;4.448;2023-07-20T10:50:11;2.75;;;1.15;;
25948;SDS011;13961;51.178;4.448;2023-07-20T10:52:38;2.25;;;1.40;;
25948;SDS011;13961;51.178;4.448;2023-07-20T10:55:13;3.45;;;1.38;;
25948;SDS011;13961;51.178;4.448;2023-07-20T10:57:40;1.80;;;1.20;;
25948;SDS011;13961;51.178;4.448;2023-07-20T11:00:07;2.03;;;1.10;;
25948;SDS011;13961;51.178;4.448;2023-07-20T11:02:48;1.77;;;1.30;;
25948;SDS011;13961;51.178;4.448;2023-07-20T11:08:14;1.52;;;1.00;;
25948;SDS011;13961;51.178;4.448;2023-07-20T11:11:25;1.85;;;1.10;;
25948;SDS011;13961;51.178;4.448;2023-07-20T11:13:56;1.35;;;1.15;;
25948;SDS011;13961;51.178;4.448;2023-07-20T11:16:34;1.80;;;1.00;;
25948;SDS011;13961;51.178;4.448;2023-07-20T11:19:00;1.10;;;0.88;;
25948;SDS011;13961;51.178;4.448;2023-07-20T11:21:25;1.35;;;1.00;;
25948;SDS011;13961;51.178;4.448;2023-07-20T11:23:52;1.67;;;1.05;;
25948;SDS011;13961;51.178;4.448;2023-07-20T11:26:18;1.83;;;1.08;;
25948;SDS011;13961;51.178;4.448;2023-07-20T11:28:50;1.10;;;1.00;;
25948;SDS011;13961;51.178;4.448;2023-07-20T11:31:17;1.67;;;1.23;;
25948;SDS011;13961;51.178;4.448;2023-07-20T11:33:43;1.38;;;1.10;;
25948;SDS011;13961;51.178;4.448;2023-07-20T11:36:09;1.45;;;1.13;;
25948;SDS011;13961;51.178;4.448;2023-07-20T11:38:35;1.75;;;1.05;;
25948;SDS011;13961;51.178;4.448;2023-07-20T11:41:02;1.20;;;1.10;;
25948;SDS011;13961;51.178;4.448;2023-07-20T11:43:28;1.98;;;1.00;;
25948;SDS011;13961;51.178;4.448;2023-07-20T11:45:55;1.25;;;1.10;;
25948;SDS011;13961;51.178;4.448;2023-07-20T11:48:21;2.13;;;1.00;;
25948;SDS011;13961;51.178;4.448;2023-07-20T11:50:46;2.55;;;1.20;;
25948;SDS011;13961;51.178;4.448;2023-07-20T11:53:12;1.63;;;1.10;;
25948;SDS011;13961;51.178;4.448;2023-07-20T11:55:39;2.05;;;1.08;;
25948;SDS011;13961;51.178;4.448;2023-07-20T11:58:07;1.58;;;0.90;;
25948;SDS011;13961;51.178;4.448;2023-07-20T12:00:33;1.42;;;1.10;;
25948;SDS011;13961;51.178;4.448;2023-07-20T12:03:00;1.30;;;1.20;;
25948;SDS011;13961;51.178;4.448;2023-07-20T12:05:26;1.50;;;1.40;;
25948;SDS011;13961;51.178;4.448;2023-07-20T12:07:52;2.20;;;1.90;;
25948;SDS011;13961;51.178;4.448;2023-07-20T12:10:26;2.00;;;1.67;;
25948;SDS011;13961;51.178;4.448;2023-07-20T12:12:53;2.03;;;1.77;;
25948;SDS011;13961;51.178;4.448;2023-07-20T12:15:20;2.35;;;1.55;;
25948;SDS011;13961;51.178;4.448;2023-07-20T12:17:46;1.42;;;1.33;;
25948;SDS011;13961;51.178;4.448;2023-07-20T12:20:29;1.98;;;1.50;;
25948;SDS011;13961;51.178;4.448;2023-07-20T12:23:08;1.70;;;1.60;;
25948;SDS011;13961;51.178;4.448;2023-07-20T12:28:08;1.98;;;1.88;;
25948;SDS011;13961;51.178;4.448;2023-07-20T12:30:39;1.90;;;1.80;;
25948;SDS011;13961;51.178;4.448;2023-07-20T12:33:05;2.30;;;2.10;;
25948;SDS011;13961;51.178;4.448;2023-07-20T12:35:31;3.63;;;1.95;;
25948;SDS011;13961;51.178;4.448;2023-07-20T12:37:57;1.88;;;1.77;;
25948;SDS011;13961;51.178;4.448;2023-07-20T12:40:23;2.45;;;2.30;;
25948;SDS011;13961;51.178;4.448;2023-07-20T12:42:49;2.65;;;2.45;;
25948;SDS011;13961;51.178;4.448;2023-07-20T12:45:15;4.35;;;2.28;;
25948;SDS011;13961;51.178;4.448;2023-07-20T12:47:40;3.08;;;2.50;;
25948;SDS011;13961;51.178;4.448;2023-07-20T12:50:08;2.97;;;2.63;;
25948;SDS011;13961;51.178;4.448;2023-07-20T12:52:35;2.50;;;2.40;;
25948;SDS011;13961;51.178;4.448;2023-07-20T12:55:03;2.95;;;2.75;;
25948;SDS011;13961;51.178;4.448;2023-07-20T12:57:33;3.10;;;2.80;;
25948;SDS011;13961;51.178;4.448;2023-07-20T13:00:00;3.20;;;2.90;;
25948;SDS011;13961;51.178;4.448;2023-07-20T13:02:29;3.30;;;3.03;;
25948;SDS011;13961;51.178;4.448;2023-07-20T13:04:55;3.22;;;2.92;;
25948;SDS011;13961;51.178;4.448;2023-07-20T13:07:28;5.53;;;3.22;;
25948;SDS011;13961;51.178;4.448;2023-07-20T13:10:00;4.43;;;3.08;;
25948;SDS011;13961;51.178;4.448;2023-07-20T13:12:30;5.10;;;3.30;;
25948;SDS011;13961;51.178;4.448;2023-07-20T13:14:57;3.30;;;3.00;;
25948;SDS011;13961;51.178;4.448;2023-07-20T13:17:25;3.63;;;3.33;;
25948;SDS011;13961;51.178;4.448;2023-07-20T13:19:54;3.85;;;3.45;;
25948;SDS011;13961;51.178;4.448;2023-07-20T13:22:20;4.45;;;4.05;;
25948;SDS011;13961;51.178;4.448;2023-07-20T13:24:46;3.80;;;3.47;;
25948;SDS011;13961;51.178;4.448;2023-07-20T13:27:14;3.80;;;3.50;;
25948;SDS011;13961;51.178;4.448;2023-07-20T13:29:40;3.60;;;3.30;;
25948;SDS011;13961;51.178;4.448;2023-07-20T13:32:06;3.95;;;3.63;;
25948;SDS011;13961;51.178;4.448;2023-07-20T13:34:32;5.40;;;3.70;;
25948;SDS011;13961;51.178;4.448;2023-07-20T13:36:58;4.13;;;3.58;;
25948;SDS011;13961;51.178;4.448;2023-07-20T13:39:26;4.18;;;3.78;;
25948;SDS011;13961;51.178;4.448;2023-07-20T13:41:52;5.80;;;3.92;;
25948;SDS011;13961;51.178;4.448;2023-07-20T13:44:19;4.30;;;3.90;;
25948;SDS011;13961;51.178;4.448;2023-07-20T13:46:45;4.47;;;4.18;;
25948;SDS011;13961;51.178;4.448;2023-07-20T13:49:12;5.30;;;4.00;;
25948;SDS011;13961;51.178;4.448;2023-07-20T13:51:37;4.93;;;4.43;;
25948;SDS011;13961;51.178;4.448;2023-07-20T13:54:03;5.13;;;4.43;;
25948;SDS011;13961;51.178;4.448;2023-07-20T13:56:29;4.38;;;4.07;;
25948;SDS011;13961;51.178;4.448;2023-07-20T13:58:54;5.78;;;3.75;;
25948;SDS011;13961;51.178;4.448;2023-07-20T14:01:20;4.50;;;4.10;;
25948;SDS011;13961;51.178;4.448;2023-07-20T14:03:48;5.03;;;4.18;;
25948;SDS011;13961;51.178;4.448;2023-07-20T14:06:14;5.78;;;4.43;;
25948;SDS011;13961;51.178;4.448;2023-07-20T14:08:39;5.18;;;4.78;;
25948;SDS011;13961;51.178;4.448;2023-07-20T14:11:06;4.45;;;4.05;;
25948;SDS011;13961;51.178;4.448;2023-07-20T14:13:31;5.72;;;4.80;;
25948;SDS011;13961;51.178;4.448;2023-07-20T14:15:57;4.65;;;3.97;;
25948;SDS011;13961;51.178;4.448;2023-07-20T14:18:23;5.68;;;5.10;;
25948;SDS011;13961;51.178;4.448;2023-07-20T14:20:48;4.57;;;4.18;;
25948;SDS011;13961;51.178;4.448;2023-07-20T14:23:14;6.90;;;4.90;;
25948;SDS011;13961;51.178;4.448;2023-07-20T14:25:40;5.72;;;5.22;;
25948;SDS011;13961;51.178;4.448;2023-07-20T14:28:06;7.40;;;4.60;;
25948;SDS011;13961;51.178;4.448;2023-07-20T14:30:32;5.22;;;4.72;;
25948;SDS011;13961;51.178;4.448;2023-07-20T14:32:58;5.40;;;4.90;;
25948;SDS011;13961;51.178;4.448;2023-07-20T14:35:23;5.57;;;4.93;;
25948;SDS011;13961;51.178;4.448;2023-07-20T14:37:49;5.57;;;5.03;;
25948;SDS011;13961;51.178;4.448;2023-07-20T14:40:15;6.05;;;4.70;;
25948;SDS011;13961;51.178;4.448;2023-07-20T14:42:41;4.97;;;4.43;;
25948;SDS011;13961;51.178;4.448;2023-07-20T14:45:06;5.65;;;5.15;;
25948;SDS011;13961;51.178;4.448;2023-07-20T14:47:33;5.60;;;5.07;;
25948;SDS011;13961;51.178;4.448;2023-07-20T14:50:00;6.50;;;5.18;;
25948;SDS011;13961;51.178;4.448;2023-07-20T14:52:27;4.72;;;4.32;;
25948;SDS011;13961;51.178;4.448;2023-07-20T14:54:53;4.72;;;4.28;;
25948;SDS011;13961;51.178;4.448;2023-07-20T14:57:19;5.25;;;3.97;;
25948;SDS011;13961;51.178;4.448;2023-07-20T14:59:47;4.90;;;3.95;;